createdAt,value
2023-11-30T00:00:18.477Z,101534.30
2023-11-30T00:03:05.626Z,101532.46
2023-11-30T00:05:32.919Z,101533.50
2023-11-30T00:07:59.933Z,101532.29
2023-11-30T00:10:26.989Z,101539.88
2023-11-30T00:12:54.128Z,101542.05
2023-11-30T00:15:21.182Z,101552.27
2023-11-30T00:17:47.962Z,101558.58
2023-11-30T00:20:14.990Z,101572.38
2023-11-30T00:22:42.313Z,101583.08
2023-11-30T00:25:10.006Z,101591.14
2023-11-30T00:27:36.833Z,101593.96
2023-11-30T00:30:04.318Z,101606.37
2023-11-30T00:32:31.453Z,101609.70
2023-11-30T00:34:58.390Z,101612.50
2023-11-30T00:37:25.119Z,101610.89
2023-11-30T00:39:52.108Z,101610.36
2023-11-30T00:42:19.163Z,101610.01
2023-11-30T00:44:46.165Z,101609.52
2023-11-30T00:47:13.004Z,101609.84
2023-11-30T00:49:39.837Z,101615.91
2023-11-30T00:52:06.605Z,101617.33
2023-11-30T00:54:33.537Z,101618.27
2023-11-30T00:57:00.302Z,101621.02
2023-11-30T00:59:27.222Z,101622.52
2023-11-30T01:01:53.966Z,101626.50
2023-11-30T01:04:21.260Z,101628.19
2023-11-30T01:06:49.177Z,101631.02
2023-11-30T01:09:16.175Z,101637.26
2023-11-30T01:11:44.196Z,101642.43
2023-11-30T01:14:11.447Z,101645.13
2023-11-30T01:16:38.396Z,101652.15
2023-11-30T01:19:06.124Z,101655.59
2023-11-30T01:21:33.515Z,101657.25
2023-11-30T01:24:00.590Z,101655.29
2023-11-30T01:26:27.601Z,101655.02
2023-11-30T01:28:54.259Z,101660.38
2023-11-30T01:31:21.177Z,101660.63
2023-11-30T01:33:49.502Z,101657.76
2023-11-30T01:36:16.745Z,101665.77
2023-11-30T01:38:43.776Z,101663.06
2023-11-30T01:41:10.584Z,101664.93
2023-11-30T01:43:37.251Z,101665.71
2023-11-30T01:46:05.280Z,101671.42
2023-11-30T01:48:33.144Z,101680.48
2023-11-30T01:51:03.342Z,101687.60
2023-11-30T01:53:30.245Z,101691.93
2023-11-30T01:55:58.117Z,101692.26
2023-11-30T01:58:25.486Z,101700.09
2023-11-30T02:00:53.338Z,101705.29
2023-11-30T02:03:21.440Z,101709.80
2023-11-30T02:05:52.086Z,101716.41
2023-11-30T02:08:19.186Z,101718.03
2023-11-30T02:10:45.908Z,101722.23
2023-11-30T02:13:12.879Z,101727.98
2023-11-30T02:15:39.724Z,101731.00
2023-11-30T02:18:06.951Z,101735.05
2023-11-30T02:20:33.940Z,101735.69
2023-11-30T02:23:00.764Z,101742.33
2023-11-30T02:25:27.497Z,101741.83
2023-11-30T02:27:54.339Z,101748.29
2023-11-30T02:30:21.536Z,101747.34
2023-11-30T02:32:49.637Z,101743.58
2023-11-30T02:35:16.725Z,101747.23
2023-11-30T02:37:43.768Z,101748.08
2023-11-30T02:40:11.113Z,101750.38
2023-11-30T02:42:37.964Z,101751.91
2023-11-30T02:45:05.877Z,101759.02
2023-11-30T02:47:33.102Z,101769.91
2023-11-30T02:49:59.925Z,101772.41
2023-11-30T02:52:26.560Z,101779.63
2023-11-30T02:54:53.178Z,101785.40
2023-11-30T02:57:19.950Z,101786.34
2023-11-30T02:59:47.521Z,101784.69
2023-11-30T03:02:14.896Z,101790.09
2023-11-30T03:04:41.903Z,101785.98
2023-11-30T03:07:08.746Z,101784.15
2023-11-30T03:09:35.592Z,101785.09
2023-11-30T03:12:02.448Z,101785.27
2023-11-30T03:14:29.110Z,101790.96
2023-11-30T03:16:57.560Z,101794.17
2023-11-30T03:19:24.836Z,101791.39
2023-11-30T03:21:52.676Z,101788.77
2023-11-30T03:24:20.513Z,101791.77
2023-11-30T03:26:47.490Z,101798.24
2023-11-30T03:29:14.668Z,101803.29
2023-11-30T03:31:42.091Z,101810.88
2023-11-30T03:34:09.035Z,101813.91
2023-11-30T03:36:35.950Z,101815.92
2023-11-30T03:39:03.204Z,101808.17
2023-11-30T03:41:30.385Z,101804.62
2023-11-30T03:43:57.632Z,101806.47
2023-11-30T03:46:25.554Z,101812.54
2023-11-30T03:48:54.193Z,101820.12
2023-11-30T03:51:21.615Z,101831.04
2023-11-30T03:53:48.696Z,101838.52
2023-11-30T03:56:15.838Z,101839.80
2023-11-30T03:58:42.707Z,101837.33
2023-11-30T04:01:09.530Z,101836.20
2023-11-30T04:03:36.412Z,101835.72
2023-11-30T04:06:04.155Z,101833.69
2023-11-30T04:08:31.869Z,101833.39
2023-11-30T04:11:00.070Z,101839.34
2023-11-30T04:13:27.019Z,101845.23
2023-11-30T04:15:54.589Z,101849.59
2023-11-30T04:18:22.327Z,101846.21
2023-11-30T04:20:50.257Z,101842.65
2023-11-30T04:23:16.968Z,101839.92
2023-11-30T04:25:43.787Z,101843.23
2023-11-30T04:28:11.249Z,101843.18
2023-11-30T04:30:38.187Z,101845.88
2023-11-30T04:33:07.029Z,101845.96
2023-11-30T04:35:34.142Z,101853.37
2023-11-30T04:38:02.004Z,101858.02
2023-11-30T04:40:29.566Z,101866.97
2023-11-30T04:42:56.235Z,101869.38
2023-11-30T04:45:23.144Z,101875.41
2023-11-30T04:47:50.739Z,101880.76
2023-11-30T04:50:18.064Z,101880.53
2023-11-30T04:52:44.997Z,101876.21
2023-11-30T04:55:12.666Z,101877.46
2023-11-30T04:57:39.531Z,101878.73
2023-11-30T05:00:07.648Z,101884.14
2023-11-30T05:02:38.704Z,101888.15
2023-11-30T05:05:06.838Z,101885.63
2023-11-30T05:07:33.742Z,101885.11
2023-11-30T05:10:00.987Z,101889.27
2023-11-30T05:12:27.849Z,101903.70
2023-11-30T05:14:54.680Z,101910.77
2023-11-30T05:17:21.524Z,101912.08
2023-11-30T05:19:48.524Z,101917.27
2023-11-30T05:22:15.417Z,101916.24
2023-11-30T05:24:42.459Z,101915.98
2023-11-30T05:27:09.532Z,101915.67
2023-11-30T05:29:36.461Z,101918.60
2023-11-30T05:32:03.756Z,101918.19
2023-11-30T05:34:30.386Z,101920.15
2023-11-30T05:36:57.005Z,101922.42
2023-11-30T05:39:23.693Z,101930.00
2023-11-30T05:41:50.565Z,101937.44
2023-11-30T05:44:17.513Z,101944.38
2023-11-30T05:46:46.563Z,101951.42
2023-11-30T05:49:14.733Z,101954.34
2023-11-30T05:51:41.631Z,101959.99
2023-11-30T05:54:09.361Z,101964.16
2023-11-30T05:56:36.632Z,101970.04
2023-11-30T05:59:04.528Z,101967.70
2023-11-30T06:01:31.365Z,101973.71
2023-11-30T06:03:58.575Z,101973.51
2023-11-30T06:06:25.599Z,101974.09
2023-11-30T06:08:52.469Z,101981.49
2023-11-30T06:11:19.344Z,101986.13
2023-11-30T06:13:46.175Z,101990.69
2023-11-30T06:16:13.619Z,101993.95
2023-11-30T06:18:40.444Z,101992.72
2023-11-30T06:21:10.139Z,101993.10
2023-11-30T06:23:38.157Z,101998.02
2023-11-30T06:26:07.631Z,102003.59
2023-11-30T06:28:34.397Z,102007.52
2023-11-30T06:31:01.572Z,102009.23
2023-11-30T06:33:29.391Z,102008.98
2023-11-30T06:35:56.260Z,102011.59
2023-11-30T06:38:22.996Z,102015.95
2023-11-30T06:40:49.737Z,102023.27
2023-11-30T06:43:16.784Z,102030.95
2023-11-30T06:45:43.963Z,102029.05
2023-11-30T06:48:10.848Z,102029.18
2023-11-30T06:50:37.934Z,102035.02
2023-11-30T06:53:04.671Z,102035.90
2023-11-30T06:55:31.461Z,102037.72
2023-11-30T06:57:58.358Z,102039.89
2023-11-30T07:00:27.510Z,102046.59
2023-11-30T07:02:57.066Z,102052.30
2023-11-30T07:05:24.663Z,102059.80
2023-11-30T07:07:51.472Z,102060.73
2023-11-30T07:10:18.212Z,102060.64
2023-11-30T07:12:46.448Z,102061.93
2023-11-30T07:15:13.358Z,102060.67
2023-11-30T07:17:40.490Z,102058.38
2023-11-30T07:20:08.650Z,102058.34
2023-11-30T07:22:35.690Z,102060.67
2023-11-30T07:25:04.488Z,102064.59
2023-11-30T07:27:31.279Z,102065.92
2023-11-30T07:29:57.880Z,102067.60
2023-11-30T07:32:24.782Z,102072.49
2023-11-30T07:34:51.656Z,102076.70
2023-11-30T07:37:21.465Z,102080.14
2023-11-30T07:39:48.415Z,102080.38
2023-11-30T07:42:23.714Z,102083.78
2023-11-30T07:44:56.527Z,102081.83
2023-11-30T07:47:23.481Z,102082.57
2023-11-30T07:49:50.729Z,102090.48
2023-11-30T07:52:18.205Z,102096.56
2023-11-30T07:54:45.027Z,102097.37
2023-11-30T07:57:12.438Z,102096.04
2023-11-30T07:59:39.342Z,102093.95
2023-11-30T08:02:08.730Z,102092.52
2023-11-30T08:04:38.823Z,102097.27
2023-11-30T08:07:05.909Z,102098.20
2023-11-30T08:09:32.982Z,102102.43
2023-11-30T08:11:59.803Z,102106.31
2023-11-30T08:14:26.630Z,102105.99
2023-11-30T08:16:53.491Z,102105.68
2023-11-30T08:19:20.879Z,102105.83
2023-11-30T08:21:48.317Z,102107.73
2023-11-30T08:24:15.350Z,102109.33
2023-11-30T08:26:42.548Z,102110.74
2023-11-30T08:29:09.433Z,102107.98
2023-11-30T08:31:37.439Z,102104.98
2023-11-30T08:34:04.267Z,102104.55
2023-11-30T08:36:31.235Z,102104.48
2023-11-30T08:38:58.450Z,102108.80
2023-11-30T08:41:25.379Z,102108.95
2023-11-30T08:43:52.329Z,102107.72
2023-11-30T08:46:19.393Z,102107.11
2023-11-30T08:48:46.890Z,102104.13
2023-11-30T08:51:14.717Z,102099.74
2023-11-30T08:53:41.546Z,102096.90
2023-11-30T08:56:09.211Z,102096.64
2023-11-30T08:58:36.563Z,102094.52
2023-11-30T09:01:04.530Z,102092.21
2023-11-30T09:03:31.505Z,102090.86
2023-11-30T09:05:58.314Z,102089.10
2023-11-30T09:08:25.268Z,102081.86
2023-11-30T09:10:52.115Z,102075.21
2023-11-30T09:13:19.017Z,102061.47
2023-11-30T09:15:46.878Z,102048.99
2023-11-30T09:18:13.985Z,102043.80
2023-11-30T09:20:40.906Z,102031.02
2023-11-30T09:23:08.171Z,102012.29
2023-11-30T09:25:35.728Z,101998.64
2023-11-30T09:28:03.386Z,101992.70
2023-11-30T09:30:30.265Z,101989.47
2023-11-30T09:32:57.228Z,101985.54
2023-11-30T09:35:24.939Z,101991.14
2023-11-30T09:37:53.234Z,101993.16
2023-11-30T09:40:20.568Z,101987.31
2023-11-30T09:42:47.580Z,101985.61
2023-11-30T09:45:15.414Z,101983.08
2023-11-30T09:47:42.359Z,101972.45
2023-11-30T09:50:09.785Z,101967.97
2023-11-30T09:52:38.054Z,101965.17
2023-11-30T09:55:06.280Z,101963.71
2023-11-30T09:57:32.992Z,101960.88
2023-11-30T09:59:59.935Z,101956.71
2023-11-30T10:02:28.843Z,101949.41
2023-11-30T10:04:57.600Z,101943.76
2023-11-30T10:07:24.746Z,101941.05
2023-11-30T10:09:51.787Z,101936.56
2023-11-30T10:12:20.597Z,101938.41
2023-11-30T10:14:47.378Z,101937.56
2023-11-30T10:17:14.433Z,101938.73
2023-11-30T10:19:41.699Z,101931.23
2023-11-30T10:22:08.564Z,101935.65
2023-11-30T10:24:35.527Z,101937.99
2023-11-30T10:27:06.584Z,101936.02
2023-11-30T10:29:41.668Z,101930.78
2023-11-30T10:32:13.965Z,101928.02
2023-11-30T10:34:47.959Z,101927.36
2023-11-30T10:37:20.484Z,101924.73
2023-11-30T10:40:00.295Z,101925.46
2023-11-30T10:42:29.124Z,101921.94
2023-11-30T10:45:01.770Z,101919.16
2023-11-30T10:47:30.541Z,101918.50
2023-11-30T10:50:06.630Z,101914.28
2023-11-30T10:52:35.810Z,101908.19
2023-11-30T10:55:14.424Z,101903.70
2023-11-30T10:57:43.282Z,101903.59
2023-11-30T11:00:12.766Z,101906.01
2023-11-30T11:02:42.326Z,101908.13
2023-11-30T11:05:13.713Z,101906.56
2023-11-30T11:07:52.010Z,101905.83
2023-11-30T11:10:32.247Z,101904.78
2023-11-30T11:13:00.618Z,101909.29
2023-11-30T11:15:29.258Z,101911.33
2023-11-30T11:18:04.432Z,101916.27
2023-11-30T11:20:33.071Z,101918.02
2023-11-30T11:23:03.051Z,101921.46
2023-11-30T11:25:35.018Z,101923.37
2023-11-30T11:28:01.962Z,101921.33
2023-11-30T11:30:28.975Z,101926.71
2023-11-30T11:33:00.363Z,101925.13
2023-11-30T11:35:27.683Z,101932.41
2023-11-30T11:37:58.564Z,101938.04
2023-11-30T11:40:26.638Z,101940.66
2023-11-30T11:42:54.390Z,101940.50
2023-11-30T11:45:21.997Z,101939.77
2023-11-30T11:47:48.946Z,101935.67
2023-11-30T11:50:16.347Z,101933.77
2023-11-30T11:52:43.396Z,101932.38
2023-11-30T11:55:12.710Z,101935.90
2023-11-30T11:57:44.343Z,101934.75
2023-11-30T12:00:18.645Z,101938.13
2023-11-30T12:02:46.805Z,101937.36
2023-11-30T12:05:21.340Z,101928.84
2023-11-30T12:07:53.337Z,101929.14
2023-11-30T12:10:39.836Z,101927.91
2023-11-30T12:13:08.937Z,101928.37
2023-11-30T12:15:36.132Z,101925.55
2023-11-30T12:18:04.307Z,101911.05
2023-11-30T12:20:34.048Z,101905.23
2023-11-30T12:23:01.630Z,101912.16
2023-11-30T12:25:29.303Z,101912.30
2023-11-30T12:27:56.763Z,101911.67
2023-11-30T12:30:26.874Z,101913.63
2023-11-30T12:32:54.202Z,101918.56
2023-11-30T12:35:21.262Z,101919.13
2023-11-30T12:37:51.898Z,101926.27
2023-11-30T12:40:19.044Z,101921.13
2023-11-30T12:42:46.385Z,101917.02
2023-11-30T12:45:14.231Z,101910.06
2023-11-30T12:47:42.093Z,101907.65
2023-11-30T12:50:11.362Z,101901.34
2023-11-30T12:52:39.095Z,101906.91
2023-11-30T12:55:07.144Z,101910.05
2023-11-30T12:57:34.964Z,101907.42
2023-11-30T13:00:03.621Z,101908.21
2023-11-30T13:02:30.547Z,101910.20
2023-11-30T13:04:57.617Z,101907.41
2023-11-30T13:07:24.975Z,101908.52
2023-11-30T13:09:51.999Z,101914.00
2023-11-30T13:12:19.031Z,101907.89
2023-11-30T13:14:45.904Z,101907.73
2023-11-30T13:17:13.980Z,101906.09
2023-11-30T13:19:42.098Z,101896.86
2023-11-30T13:22:10.936Z,101896.51
2023-11-30T13:24:38.428Z,101897.65
2023-11-30T13:27:05.345Z,101895.39
2023-11-30T13:29:32.773Z,101893.24
2023-11-30T13:31:59.640Z,101889.87
2023-11-30T13:34:26.587Z,101880.67
2023-11-30T13:36:53.646Z,101871.80
2023-11-30T13:39:20.437Z,101872.89
2023-11-30T13:41:48.246Z,101876.16
2023-11-30T13:44:15.296Z,101876.09
2023-11-30T13:46:42.866Z,101877.77
2023-11-30T13:49:14.295Z,101883.45
2023-11-30T13:51:41.581Z,101880.48
2023-11-30T13:54:08.722Z,101878.64
2023-11-30T13:56:36.975Z,101879.90
2023-11-30T13:59:04.028Z,101876.29
2023-11-30T14:01:31.247Z,101875.84
2023-11-30T14:03:58.181Z,101879.33
2023-11-30T14:06:25.115Z,101881.36
2023-11-30T14:08:52.200Z,101884.20
2023-11-30T14:11:19.298Z,101887.08
2023-11-30T14:13:46.107Z,101888.19
2023-11-30T14:16:15.221Z,101886.13
2023-11-30T14:18:43.229Z,101886.42
2023-11-30T14:21:10.219Z,101894.55
2023-11-30T14:23:37.268Z,101901.55
2023-11-30T14:26:04.831Z,101906.24
2023-11-30T14:28:31.774Z,101902.48
2023-11-30T14:30:58.760Z,101897.96
2023-11-30T14:33:25.998Z,101905.20
2023-11-30T14:35:52.852Z,101907.21
2023-11-30T14:38:19.661Z,101903.52
2023-11-30T14:40:46.700Z,101895.88
2023-11-30T14:43:14.818Z,101893.40
2023-11-30T14:45:42.757Z,101885.67
2023-11-30T14:48:10.111Z,101884.79
2023-11-30T14:50:37.147Z,101885.91
2023-11-30T14:53:05.260Z,101882.53
2023-11-30T14:55:33.088Z,101881.39
2023-11-30T14:57:59.967Z,101889.79
2023-11-30T15:00:28.017Z,101893.23
2023-11-30T15:02:55.049Z,101894.75
2023-11-30T15:05:22.099Z,101896.23
2023-11-30T15:07:48.937Z,101904.98
2023-11-30T15:10:17.217Z,101909.67
2023-11-30T15:12:45.309Z,101906.05
2023-11-30T15:15:15.143Z,101895.98
2023-11-30T15:17:48.890Z,101874.98
2023-11-30T15:20:17.810Z,101867.98
2023-11-30T15:22:45.973Z,101874.61
2023-11-30T15:25:17.434Z,101881.15
2023-11-30T15:27:45.078Z,101885.56
2023-11-30T15:30:13.602Z,101886.09
2023-11-30T15:32:40.816Z,101886.49
2023-11-30T15:35:08.066Z,101877.95
2023-11-30T15:37:36.352Z,101872.23
2023-11-30T15:40:11.076Z,101872.64
2023-11-30T15:42:39.142Z,101866.64
2023-11-30T15:45:09.601Z,101858.95
2023-11-30T15:47:38.732Z,101853.27
2023-11-30T15:50:06.437Z,101848.88
2023-11-30T15:52:33.604Z,101841.98
2023-11-30T15:55:00.652Z,101841.62
2023-11-30T15:57:28.306Z,101849.13
2023-11-30T15:59:55.210Z,101846.50
2023-11-30T16:02:22.149Z,101845.20
2023-11-30T16:04:49.233Z,101841.20
2023-11-30T16:07:16.182Z,101834.95
2023-11-30T16:09:44.707Z,101839.63
2023-11-30T16:12:11.702Z,101843.34
2023-11-30T16:14:40.593Z,101843.02
2023-11-30T16:17:08.785Z,101837.66
2023-11-30T16:19:38.910Z,101823.73
2023-11-30T16:22:06.010Z,101818.51
2023-11-30T16:24:33.117Z,101818.77
2023-11-30T16:27:00.437Z,101819.52
2023-11-30T16:29:27.249Z,101815.07
2023-11-30T16:31:54.675Z,101807.81
2023-11-30T16:34:23.224Z,101800.42
2023-11-30T16:36:50.092Z,101798.67
2023-11-30T16:39:17.476Z,101790.14
2023-11-30T16:41:44.284Z,101790.98
2023-11-30T16:44:12.237Z,101791.89
2023-11-30T16:46:39.762Z,101791.67
2023-11-30T16:49:06.781Z,101785.73
2023-11-30T16:51:33.914Z,101777.34
2023-11-30T16:54:00.713Z,101770.94
2023-11-30T16:56:28.087Z,101769.83
2023-11-30T16:58:55.951Z,101765.89
2023-11-30T17:01:22.962Z,101765.66
2023-11-30T17:03:50.289Z,101756.09
2023-11-30T17:06:17.657Z,101750.41
2023-11-30T17:08:45.168Z,101743.48
2023-11-30T17:11:12.058Z,101734.00
2023-11-30T17:13:41.363Z,101730.63
2023-11-30T17:16:09.533Z,101725.45
2023-11-30T17:18:36.803Z,101714.36
2023-11-30T17:21:04.485Z,101707.27
2023-11-30T17:23:31.732Z,101709.14
2023-11-30T17:25:59.041Z,101717.95
2023-11-30T17:28:26.020Z,101721.80
2023-11-30T17:30:53.977Z,101718.33
2023-11-30T17:33:21.598Z,101712.20
2023-11-30T17:35:48.963Z,101709.38
2023-11-30T17:38:16.015Z,101713.70
2023-11-30T17:40:42.925Z,101720.39
2023-11-30T17:43:09.707Z,101715.40
2023-11-30T17:45:36.718Z,101713.67
2023-11-30T17:48:07.296Z,101717.48
2023-11-30T17:50:34.100Z,101718.57
2023-11-30T17:53:01.977Z,101721.64
2023-11-30T17:55:31.056Z,101728.54
2023-11-30T17:57:58.181Z,101732.61
2023-11-30T18:00:27.113Z,101731.30
2023-11-30T18:02:54.244Z,101724.31
2023-11-30T18:05:21.388Z,101717.24
2023-11-30T18:07:48.393Z,101708.66
2023-11-30T18:10:15.381Z,101699.26
2023-11-30T18:12:42.443Z,101700.02
2023-11-30T18:15:09.841Z,101692.39
2023-11-30T18:17:36.781Z,101692.50
2023-11-30T18:20:04.707Z,101687.33
2023-11-30T18:22:33.483Z,101680.66
2023-11-30T18:25:01.181Z,101675.25
2023-11-30T18:27:28.513Z,101680.14
2023-11-30T18:29:55.551Z,101678.59
2023-11-30T18:32:23.185Z,101675.30
2023-11-30T18:34:49.990Z,101671.83
2023-11-30T18:37:17.039Z,101670.23
2023-11-30T18:39:44.353Z,101666.20
2023-11-30T18:42:13.552Z,101658.81
2023-11-30T18:44:40.604Z,101658.84
2023-11-30T19:18:50.696Z,101589.08
2023-11-30T19:21:18.366Z,101584.62
2023-11-30T19:23:45.805Z,101578.61
2023-11-30T19:26:13.248Z,101584.02
2023-11-30T19:28:40.568Z,101581.98
2023-11-30T19:31:07.769Z,101580.27
2023-11-30T19:33:37.939Z,101575.92
2023-11-30T19:36:04.994Z,101582.73
2023-11-30T19:38:33.173Z,101585.98
2023-11-30T19:41:01.083Z,101581.80
2023-11-30T19:43:28.150Z,101578.88
2023-11-30T19:45:55.955Z,101577.88
2023-11-30T19:48:23.939Z,101574.27
2023-11-30T19:50:51.115Z,101574.78
2023-11-30T19:53:18.264Z,101568.36
2023-11-30T19:55:47.047Z,101562.34
2023-11-30T19:58:14.831Z,101553.71
2023-11-30T20:00:44.852Z,101546.77
2023-11-30T20:03:15.351Z,101549.74
2023-11-30T20:05:42.524Z,101549.08
2023-11-30T20:08:09.669Z,101553.11
2023-11-30T20:10:36.603Z,101541.98
2023-11-30T20:13:03.595Z,101543.55
2023-11-30T20:15:30.681Z,101537.00
2023-11-30T20:17:57.507Z,101531.48
2023-11-30T20:20:24.803Z,101520.02
2023-11-30T20:22:51.752Z,101515.00
2023-11-30T20:25:18.696Z,101508.43
2023-11-30T20:27:45.892Z,101510.56
2023-11-30T20:30:13.450Z,101513.19
2023-11-30T20:32:43.427Z,101504.69
2023-11-30T20:35:10.987Z,101510.81
2023-11-30T20:37:37.937Z,101502.66
2023-11-30T20:40:05.652Z,101494.50
2023-11-30T20:42:32.743Z,101499.05
2023-11-30T20:44:59.679Z,101508.77
2023-11-30T20:47:26.654Z,101509.97
2023-11-30T20:49:53.795Z,101497.45
2023-11-30T20:52:20.819Z,101496.08
2023-11-30T20:54:47.970Z,101492.96
2023-11-30T20:57:18.098Z,101490.85
2023-11-30T20:59:44.939Z,101488.06
2023-11-30T21:02:14.117Z,101489.45
2023-11-30T21:04:41.262Z,101485.10
2023-11-30T21:07:08.655Z,101483.88
2023-11-30T21:09:37.716Z,101481.12
2023-11-30T21:12:05.025Z,101484.45
2023-11-30T21:14:32.402Z,101483.42
2023-11-30T21:16:59.488Z,101487.05
2023-11-30T21:19:26.737Z,101483.96
2023-11-30T21:21:53.532Z,101488.20
2023-11-30T21:24:21.458Z,101488.23
2023-11-30T21:26:48.293Z,101479.89
2023-11-30T21:29:15.246Z,101470.33
2023-11-30T21:31:42.219Z,101465.66
2023-11-30T21:34:09.497Z,101465.87
2023-11-30T21:36:42.365Z,101458.59
2023-11-30T21:39:11.879Z,101461.35
2023-11-30T21:41:38.874Z,101460.84
2023-11-30T21:44:05.827Z,101455.44
2023-11-30T21:46:41.469Z,101454.55
2023-11-30T21:49:08.733Z,101450.73
2023-11-30T21:51:36.494Z,101444.67
2023-11-30T21:54:03.741Z,101437.58
2023-11-30T21:56:30.584Z,101428.55
2023-11-30T21:58:57.552Z,101413.14
2023-11-30T22:01:24.749Z,101408.14
2023-11-30T22:03:51.915Z,101402.08
2023-11-30T22:06:18.794Z,101405.03
2023-11-30T22:08:49.449Z,101404.87
2023-11-30T22:11:19.362Z,101405.94
2023-11-30T22:13:46.207Z,101393.64
2023-11-30T22:16:14.997Z,101383.06
2023-11-30T22:18:43.305Z,101384.45
2023-11-30T22:21:10.170Z,101386.73
2023-11-30T22:23:37.226Z,101385.90
2023-11-30T22:26:04.892Z,101385.73
2023-11-30T22:28:31.793Z,101384.00
2023-11-30T22:31:00.234Z,101375.33
2023-11-30T22:33:27.564Z,101371.67
2023-11-30T22:35:54.695Z,101371.45
2023-11-30T22:38:21.973Z,101364.65
2023-11-30T22:40:49.121Z,101361.86
2023-11-30T22:43:15.956Z,101354.08
2023-11-30T22:45:42.916Z,101347.98
2023-11-30T22:48:09.887Z,101344.33
2023-11-30T22:50:36.843Z,101331.66
2023-11-30T22:53:03.942Z,101327.35
2023-11-30T22:55:31.105Z,101319.90
2023-11-30T22:57:58.147Z,101317.30
2023-11-30T23:00:25.733Z,101316.63
2023-11-30T23:02:53.016Z,101312.65
2023-11-30T23:05:20.752Z,101306.77
2023-11-30T23:07:47.656Z,101304.52
2023-11-30T23:10:17.573Z,101295.50
2023-11-30T23:12:45.275Z,101297.23
2023-11-30T23:15:12.022Z,101299.84
2023-11-30T23:17:38.935Z,101294.81
2023-11-30T23:20:06.894Z,101286.65
2023-11-30T23:22:34.249Z,101293.75
2023-11-30T23:25:03.247Z,101303.23
2023-11-30T23:27:30.173Z,101308.07
2023-11-30T23:29:57.437Z,101299.02
2023-11-30T23:32:25.435Z,101290.83
2023-11-30T23:34:52.557Z,101289.41
2023-11-30T23:37:19.497Z,101290.25
2023-11-30T23:39:46.469Z,101287.27
2023-11-30T23:42:13.569Z,101281.71
2023-11-30T23:44:40.540Z,101279.25
2023-11-30T23:47:07.596Z,101278.52
2023-11-30T23:49:38.073Z,101277.45
2023-11-30T23:52:05.914Z,101280.51
2023-11-30T23:54:33.194Z,101287.73
2023-11-30T23:57:00.338Z,101287.53
2023-11-30T23:59:27.154Z,101284.36
